Flight Track Log - Related Links

Times and Time Zones

All times are in EDT time to prevent confusion due to time zone crossing. See the EJA396 flight status page for this flight to view local times or setup timezone preferences in your user account.

Time Position Orientation Groundspeed Altitude Reporting Facility
EDT Latitude Longitude Course Direction KTS MPH feet Rate Location/Type
Mon 09:18:16 AM 25.8000 -80.2814 81° East 142 163 900  Level Miami Center
Mon 09:19:42 AM 25.8125 -80.1894 81° East 260 299 6,200 2,727 Climbing Miami Center
Mon 09:20:39 AM 25.8247 -80.1136 80° East 308 354 7,400 2,513 Climbing Miami Center
Mon 09:21:39 AM 25.8597 -80.0408 62° Northeast 288 331 11,100 3,100 Climbing Miami Center
Mon 09:22:39 AM 25.9033 -79.9589 59° Northeast 280 322 13,600 2,250 Climbing Miami Center
Mon 09:23:39 AM 25.9597 -79.8656 56° Northeast 317 365 15,600 2,100 Climbing Miami Center
Mon 09:24:39 AM 26.0203 -79.7606 57° Northeast 365 420 17,800 2,300 Climbing Miami Center
Mon 09:25:39 AM 26.0869 -79.6628 53° Northeast 389 448 20,200 2,300 Climbing Miami Center
Mon 09:26:39 AM 26.1822 -79.5956 32° Northeast 394 453 22,400 2,100 Climbing Miami Center
Mon 09:27:39 AM 26.2875 -79.5400 25° Northeast 401 461 24,400 2,000 Climbing Miami Center
Mon 09:28:39 AM 26.3953 -79.4822 26° Northeast 412 474 26,400 2,000 Climbing Miami Center
Mon 09:29:39 AM 26.5047 -79.4267 24° Northeast 417 480 28,400 1,950 Climbing Miami Center
Mon 09:30:39 AM 26.6144 -79.3708 24° Northeast 422 486 30,300 2,000 Climbing Miami Center
Mon 09:31:39 AM 26.7219 -79.3103 27° Northeast 428 493 32,400 1,350 Climbing Miami Center
Mon 09:32:39 AM 26.8314 -79.2569 23° Northeast 428 493 33,000 750 Climbing Miami Center
Mon 09:33:39 AM 26.9472 -79.1986 24° Northeast 435 501 33,900 1,200 Climbing Miami Center
Mon 09:34:39 AM 27.0569 -79.1331 28° Northeast 441 507 35,400 1,600 Climbing Miami Center
Mon 09:35:39 AM 27.1789 -79.0725 24° Northeast 443 510 37,100 1,500 Climbing Miami Center
Mon 09:36:39 AM 27.2928 -79.0139 25° Northeast 443 510 38,400 1,100 Climbing Miami Center
Mon 09:37:39 AM 27.4000 -78.9575 25° Northeast 436 502 39,300 950 Climbing Miami Center
Mon 09:38:39 AM 27.5047 -78.9358 10° North 422 486 40,300 850 Climbing Miami Center
Mon 09:39:39 AM 27.6178 -78.9169 North 416 479 41,000 350 Climbing Miami Center
Mon 09:40:39 AM 27.7494 -78.9006 North 416 479 41,000  Level Miami Center
Mon 09:41:39 AM 27.8708 -78.8861 North 430 495 41,000  Level Miami Center
Mon 09:42:39 AM 27.9797 -78.8717 North 430 495 41,000  Level Miami Center
Mon 09:43:39 AM 28.0989 -78.8550 North 430 495 41,000  Level Miami Center
Mon 09:44:39 AM 28.2203 -78.8358 North 430 495 41,000  Level Miami Center
Mon 09:45:39 AM 28.3436 -78.8192 North 430 495 41,000  Level Miami Center
Mon 09:46:39 AM 28.4692 -78.8025 North 440 506 41,000  Level Miami Center
Mon 09:47:39 AM 28.5903 -78.7833 North 440 506 41,000  Level Miami Center
Mon 09:48:39 AM 28.7094 -78.7664 North 440 506 41,000  Level Miami Center
Mon 09:49:39 AM 28.8350 -78.7494 North 446 513 41,000  Level Miami Center
Mon 09:50:39 AM 28.9603 -78.7328 North 451 519 41,000  Level Miami Center
Mon 09:51:39 AM 29.0817 -78.7158 North 444 511 41,000  Level Miami Center
Mon 09:52:39 AM 29.2050 -78.6989 North 444 511 41,000  Level Miami Center
Mon 09:53:39 AM 29.3283 -78.6794 North 444 511 41,000  Level Miami Center
Mon 09:54:39 AM 29.4517 -78.6625 North 444 511 41,000  Level Miami Center
Mon 09:55:39 AM 29.5811 -78.6456 North 451 519 41,000  Level Miami Center
Mon 09:56:39 AM 29.7022 -78.6308 North 446 513 41,000  Level Miami Center
Mon 09:57:39 AM 29.8214 -78.6089 North 440 506 41,000  Level Miami Center
Mon 09:58:39 AM 29.9411 -78.5833 10° North 442 509 41,000  Level Jacksonville Center
Mon 09:59:39 AM 30.0636 -78.5608 North 442 509 41,000  Level Jacksonville Center
Mon 10:00:39 AM 30.1928 -78.5528 North 442 509 41,000  Level Jacksonville Center
Mon 10:01:39 AM 30.3172 -78.5375 North 442 509 41,000  Level Jacksonville Center
Mon 10:02:39 AM 30.4419 -78.5197 North 449 517 41,000  Level Jacksonville Center
Mon 10:03:39 AM 30.5644 -78.4997 North 449 517 41,000  Level Jacksonville Center
Mon 10:04:39 AM 30.6889 -78.4769 North 444 511 41,000  Level Jacksonville Center
Mon 10:05:39 AM 30.8156 -78.4567 North 444 511 41,000  Level Jacksonville Center
Mon 10:06:39 AM 30.9400 -78.4364 North 450 518 41,000  Level Jacksonville Center
Mon 10:07:39 AM 31.0689 -78.4156 North 456 525 41,000  Level Jacksonville Center
Mon 10:08:39 AM 31.1914 -78.4000 North 451 519 41,000  Level Jacksonville Center
Mon 10:09:39 AM 31.3178 -78.3769 North 456 525 41,000  Level Jacksonville Center
Mon 10:10:39 AM 31.4444 -78.3564 North 461 531 41,000  Level Jacksonville Center
Mon 10:11:39 AM 31.5753 -78.3328 North 466 536 41,000  Level Jacksonville Center
Mon 10:12:39 AM 31.6956 -78.3147 North 460 529 41,000  Level Jacksonville Center
Mon 10:13:39 AM 31.8222 -78.2939 North 455 524 41,000  Level Jacksonville Center
Mon 10:14:39 AM 31.9506 -78.2703 North 455 524 41,000  Level Jacksonville Center
Mon 10:15:39 AM 32.0875 -78.2411 10° North 460 529 41,000  Level Jacksonville Center
Mon 10:16:39 AM 32.2139 -78.2200 North 460 529 41,000  Level Jacksonville Center
Mon 10:17:39 AM 32.3447 -78.2036 North 465 535 41,000  Level Jacksonville Center
Mon 10:18:39 AM 32.4694 -78.1847 North 460 529 41,000  Level Jacksonville Center
Mon 10:19:39 AM 32.5956 -78.1586 10° North 460 529 41,000  Level Jacksonville Center
Mon 10:20:39 AM 32.7244 -78.1444 North 460 529 41,000  Level Jacksonville Center
Mon 10:21:39 AM 32.8489 -78.1206 North 460 529 41,000  Level Jacksonville Center
Mon 10:22:39 AM 32.9753 -78.0989 North 460 529 41,000  Level Jacksonville Center
Mon 10:23:39 AM 33.1019 -78.0822 North 460 529 41,000  Level Jacksonville Center
Mon 10:24:39 AM 33.2328 -78.0603 North 460 529 41,000  Level Jacksonville Center
Mon 10:25:39 AM 33.3592 -78.0386 North 460 529 41,000  Level Jacksonville Center
Mon 10:26:17 AM 33.4358 -78.0253 North 461 531 41,000 -61 Level Washington Center
Mon 10:27:18 AM 33.5614 -78.0064 North 485 558 40,900  Descending Washington Center
Mon 10:28:18 AM 33.6889 -77.9853 North 472 543 41,000 51 Climbing Washington Center
Mon 10:29:16 AM 33.8125 -77.9661 North 458 527 41,000  Level Washington Center
Mon 10:30:16 AM 33.9339 -77.9422 North 458 527 41,000  Level Washington Center
Mon 10:31:17 AM 34.0636 -77.9158 10° North 469 540 41,000  Level Washington Center
Mon 10:32:17 AM 34.1819 -77.8439 27° Northeast 469 540 41,000  Level Washington Center
Mon 10:33:18 AM 34.3092 -77.8447 360° North 449 517 41,000  Level Washington Center
Mon 10:34:16 AM 34.4036 -77.9253 325° Northwest 413 475 41,000  Level Washington Center
Mon 10:35:16 AM 34.4958 -78.0086 323° Northwest 393 452 41,000  Level Washington Center
Mon 10:36:17 AM 34.6097 -78.0497 343° North 410 472 41,000  Level Washington Center
Mon 10:37:18 AM 34.7414 -78.0411 North 424 488 41,000  Level Washington Center
Mon 10:38:16 AM 34.8689 -78.0272 North 448 516 41,000  Level Washington Center
Mon 10:39:16 AM 34.9964 -78.0183 North 454 522 41,000  Level Washington Center
Mon 10:40:17 AM 35.1258 -78.0097 North 461 531 41,000  Level Washington Center
Mon 10:41:18 AM 35.2536 -77.9983 North 461 531 41,000  Level Washington Center
Mon 10:42:18 AM 35.3808 -77.9892 North 461 531 41,000  Level Washington Center
Mon 10:43:16 AM 35.5208 -77.9781 North 461 531 41,000  Level Washington Center
Mon 10:44:17 AM 35.6506 -77.9692 North 461 531 41,000  Level Washington Center
Mon 10:45:17 AM 35.7800 -77.9628 North 461 531 41,000  Level Washington Center
Mon 10:46:16 AM 35.9075 -77.9514 North 461 531 41,000  Level Washington Center
Mon 10:47:16 AM 36.0372 -77.9397 North 461 531 41,000  Level Washington Center
Mon 10:48:17 AM 36.1644 -77.9306 North 461 531 41,000  Level Washington Center
Mon 10:49:18 AM 36.2919 -77.9242 North 461 531 41,000  Level Washington Center
Mon 10:50:16 AM 36.4194 -77.9175 North 461 531 41,000  Level Washington Center
Mon 10:51:16 AM 36.5428 -77.9031 North 456 525 41,000  Level Washington Center
Mon 10:52:16 AM 36.6703 -77.8942 North 456 525 41,000  Level Washington Center
Mon 10:53:17 AM 36.7975 -77.8850 North 461 531 41,000  Level Washington Center
Mon 10:54:18 AM 36.9250 -77.8756 North 461 531 41,000  Level Washington Center
Mon 10:55:18 AM 37.0547 -77.8639 North 461 531 41,000  Level Washington Center
Mon 10:56:16 AM 37.1819 -77.8572 North 461 531 41,000  Level Washington Center
Mon 10:57:16 AM 37.3136 -77.8456 North 461 531 41,000  Level Washington Center
Mon 10:58:16 AM 37.4411 -77.8308 North 461 531 41,000  Level Washington Center
Mon 10:59:17 AM 37.5631 -77.7819 18° North 461 531 41,000  Level Washington Center
Mon 11:00:18 AM 37.6772 -77.6936 31° Northeast 456 525 41,000  Level Washington Center
Mon 11:01:16 AM 37.7833 -77.5939 37° Northeast 468 539 41,000 -706 Level Washington Center
Mon 11:02:17 AM 37.8911 -77.4994 35° Northeast 473 544 39,600 -1,672 Descending Washington Center
Mon 11:03:18 AM 38.0011 -77.3994 36° Northeast 473 544 37,600 -1,835 Descending Washington Center
Mon 11:04:18 AM 38.0983 -77.3147 34° Northeast 473 544 35,900 -1,322 Descending Washington Center
Mon 11:05:16 AM 38.2103 -77.2089 37° Northeast 489 563 35,000 -458 Descending Washington Center
Mon 11:06:16 AM 38.3200 -77.1056 36° Northeast 506 582 35,000  Level Washington Center
Mon 11:07:18 AM 38.4339 -76.9992 36° Northeast 506 582 35,000 -787 Level Washington Center
Mon 11:08:18 AM 38.5456 -76.8950 36° Northeast 506 582 33,400 -1,678 Descending Washington Center
Mon 11:09:16 AM 38.6572 -76.7933 35° Northeast 501 577 31,700 -1,729 Descending Washington Center
Mon 11:10:16 AM 38.7606 -76.6806 40° Northeast 491 565 30,000 -1,636 Descending Washington Center
Mon 11:11:17 AM 38.8636 -76.5619 42° Northeast 491 565 28,400 -1,686 Descending Washington Center
Mon 11:12:17 AM 38.9644 -76.4458 42° Northeast 486 559 26,600 -1,736 Descending Washington Center
Mon 11:13:18 AM 39.0653 -76.3294 42° Northeast 486 559 24,900 -1,289 Descending Washington Center
Mon 11:14:18 AM 39.1619 -76.2153 42° Northeast 481 554 24,000 -605 Descending Washington Center
Mon 11:15:17 AM 39.2625 -76.1036 41° Northeast 475 547 23,700 -1,568 Descending Washington Center
Mon 11:17:37 AM 39.5000 -75.8833 36° Northeast 416 479 18,800 -2,010 Descending Philadelphia TRACON
Mon 11:18:37 AM 39.5833 -75.8000 38° Northeast 391 450 17,000 -1,842 Descending Philadelphia TRACON
Mon 11:19:31 AM 39.6667 -75.7167 38° Northeast 366 421 15,300 -1,789 Descending Philadelphia TRACON
Mon 11:20:31 AM 39.7500 -75.6500 32° Northeast 361 415 13,600 -1,200 Descending Philadelphia TRACON
Mon 11:21:31 AM 39.8333 -75.5667 38° Northeast 363 418 12,900 -350 Descending Philadelphia TRACON
Mon 11:22:31 AM 39.9167 -75.5000 32° Northeast 369 425 12,900  Level Philadelphia TRACON
Mon 11:23:37 AM 40.0000 -75.4167 37° Northeast 361 415 12,900  Level Philadelphia TRACON
Mon 11:24:31 AM 40.0667 -75.3500 37° Northeast 359 413 12,900  Level Philadelphia TRACON
Mon 11:25:25 AM 40.1500 -75.2833 31° Northeast 360 414 12,900 -714 Level Philadelphia TRACON
Mon 11:26:37 AM 40.2333 -75.2000 37° Northeast 310 357 11,400 -1,545 Descending Philadelphia TRACON
Mon 11:27:37 AM 40.3000 -75.1333 37° Northeast 304 350 9,500 -1,714 Descending Philadelphia TRACON
Mon 11:28:29 AM 40.3500 -75.0667 45° Northeast 291 335 8,200 -1,339 Descending New York TRACON
Mon 11:29:29 AM 40.4167 -75.0000 37° Northeast 301 346 7,000 -1,263 Descending New York TRACON
Mon 11:30:23 AM 40.4667 -74.9500 37° Northeast 275 316 5,800 -1,500 Descending New York TRACON
Mon 11:31:29 AM 40.5333 -74.8833 37° Northeast 290 334 4,000 -857 Descending New York TRACON
Mon 11:32:29 AM 40.6000 -74.8167 37° Northeast 285 328 4,000  Level New York TRACON
Mon 11:33:29 AM 40.6667 -74.7667 30° Northeast 292 336 4,000  Level New York TRACON
Mon 11:34:23 AM 40.7333 -74.7000 37° Northeast 291 335 4,000  Level New York TRACON
Mon 11:35:23 AM 40.8000 -74.6500 30° Northeast 292 336 4,000  Level New York TRACON
Mon 11:36:23 AM 40.8667 -74.5833 37° Northeast 291 335 4,000 -300 Level New York TRACON
Mon 11:37:23 AM 40.9167 -74.5167 45° Northeast 265 305 3,400 -476 Descending New York TRACON
Mon 11:38:29 AM 40.9667 -74.4500 45° Northeast 227 261 3,000 -190 Descending New York TRACON
Mon 11:39:29 AM 40.9833 -74.3667 75° East 213 245 3,000 -209 Level New York TRACON
Mon 11:40:24 AM 40.9833 -74.3000 90° East 202 232 2,600 -526 Descending New York TRACON
Mon 11:41:23 AM 40.9833 -74.2333 90° East 206 237 2,000 -288 Descending New York TRACON
Mon 11:42:29 AM 40.9833 -74.1500 90° East 208 239 2,000  Level New York TRACON
Mon 11:43:23 AM 40.9833 -74.0833 90° East 184 212 2,000  Level New York TRACON
Mon 11:44:23 AM 40.9500 -74.0500 143° Southeast 169 194 2,000 -350 Level New York TRACON
Mon 11:45:23 AM 40.9167 -74.0500 180° South 107 123 1,300 -700 Descending New York TRACON
Mon 11:46:23 AM 40.8833 -74.0500 180° South 120 138 600 -700 Descending New York TRACON
Mon 11:48:00 AM 40.8500 -74.0500 150° Southeast  Level FlightAware Approximate

Login

Don't have an account? Register now (free) for customized features, flight alerts, and more!